Time;durP1;ratioP1;P1;durP2;ratioP2;P2;SDS_P1;SDS_P2;PMS_P1;PMS_P2;Temp;Humidity;BMP_temperature;BMP_pressure;BME280_temperature;BME280_humidity;BME280_pressure;Samples;Min_cycle;Max_cycle;Signal;HPM_P1;HPM_P2
2022/11/07 00:01:37;;;;;;;36.40;15.67;;;;;;;;;;4993306;28;20023;-81
2022/11/07 00:04:02;;;;;;;35.83;15.90;;;;;;;;;;4993196;28;20466;-81
2022/11/07 00:06:28;;;;;;;38.47;16.00;;;;;;;;;;4993229;28;20089;-80
2022/11/07 00:08:54;;;;;;;36.63;16.53;;;;;;;;;;4993743;28;20097;-80
2022/11/07 00:11:20;;;;;;;43.90;18.53;;;;;;;;;;4992014;28;20048;-80
2022/11/07 00:13:46;;;;;;;38.60;16.67;;;;;;;;;;4993580;28;20081;-80
2022/11/07 00:16:11;;;;;;;35.23;16.10;;;;;;;;;;4992712;28;20494;-80
2022/11/07 00:18:37;;;;;;;38.80;16.67;;;;;;;;;;4992267;28;20053;-81
2022/11/07 00:21:07;;;;;;;37.10;16.47;;;;;;;;;;4991333;28;20022;-80
2022/11/07 00:23:34;;;;;;;35.97;15.93;;;;;;;;;;4993221;28;20022;-79
2022/11/07 00:26:02;;;;;;;35.00;15.53;;;;;;;;;;5001927;28;20114;-80
2022/11/07 00:28:28;;;;;;;37.67;15.83;;;;;;;;;;5012870;28;20478;-81
2022/11/07 00:30:57;;;;;;;39.60;16.37;;;;;;;;;;5012597;28;20018;-80
2022/11/07 00:33:22;;;;;;;36.03;15.37;;;;;;;;;;5044121;28;20334;-80
2022/11/07 00:35:48;;;;;;;39.73;16.97;;;;;;;;;;5012427;28;20021;-79
2022/11/07 00:38:13;;;;;;;36.53;16.80;;;;;;;;;;5011880;28;20092;-80
2022/11/07 00:40:39;;;;;;;36.00;15.70;;;;;;;;;;5012791;28;20517;-80
2022/11/07 00:43:04;;;;;;;38.40;16.53;;;;;;;;;;5013667;28;20341;-80
2022/11/07 00:45:30;;;;;;;35.80;17.03;;;;;;;;;;5013327;28;20018;-79
2022/11/07 00:47:55;;;;;;;33.07;15.90;;;;;;;;;;5012922;28;20495;-79
2022/11/07 00:50:20;;;;;;;40.40;16.47;;;;;;;;;;5012522;28;20679;-81
2022/11/07 00:52:46;;;;;;;35.57;17.13;;;;;;;;;;5044544;28;20014;-82
2022/11/07 00:55:11;;;;;;;35.57;16.00;;;;;;;;;;5014098;28;20046;-80
2022/11/07 00:57:37;;;;;;;34.40;16.17;;;;;;;;;;5012977;28;20537;-79
2022/11/07 01:00:03;;;;;;;33.07;16.57;;;;;;;;;;5013000;28;20033;-77
2022/11/07 01:02:29;;;;;;;35.60;15.83;;;;;;;;;;5013711;28;20493;-80
2022/11/07 01:05:09;;;;;;;35.50;17.03;;;;;;;;;;5012527;28;20026;-80
2022/11/07 01:07:36;;;;;;;29.13;14.57;;;;;;;;;;5013606;28;20029;-80
2022/11/07 01:10:02;;;;;;;31.60;14.33;;;;;;;;;;5011475;28;20057;-80
2022/11/07 01:12:28;;;;;;;31.20;15.93;;;;;;;;;;5012640;28;20143;-80
2022/11/07 01:14:53;;;;;;;32.77;15.30;;;;;;;;;;5016747;28;20036;-80
2022/11/07 01:17:19;;;;;;;35.37;15.07;;;;;;;;;;5016374;28;20061;-79
2022/11/07 01:19:44;;;;;;;35.27;15.13;;;;;;;;;;5015974;28;20055;-78
2022/11/07 01:22:10;;;;;;;30.63;15.07;;;;;;;;;;5016175;28;20121;-79
2022/11/07 01:24:36;;;;;;;35.83;16.17;;;;;;;;;;5015300;28;20390;-78
2022/11/07 01:27:02;;;;;;;30.33;15.63;;;;;;;;;;4997240;28;20031;-79
2022/11/07 01:29:27;;;;;;;33.43;14.97;;;;;;;;;;4996975;28;20098;-79
2022/11/07 01:31:53;;;;;;;29.63;15.23;;;;;;;;;;4997496;28;20214;-79
2022/11/07 01:34:18;;;;;;;25.30;14.93;;;;;;;;;;4997495;28;20033;-80
2022/11/07 01:36:43;;;;;;;30.00;14.03;;;;;;;;;;4995468;28;20109;-81
2022/11/07 01:39:09;;;;;;;33.33;16.23;;;;;;;;;;4997895;28;20398;-80
2022/11/07 01:41:37;;;;;;;30.60;15.07;;;;;;;;;;4996828;28;20019;-81
2022/11/07 01:44:22;;;;;;;27.60;13.90;;;;;;;;;;4996763;28;20038;-80
2022/11/07 01:46:48;;;;;;;30.80;14.10;;;;;;;;;;4997054;28;20110;-80
2022/11/07 01:49:19;;;;;;;27.30;14.30;;;;;;;;;;4995365;28;20250;-80
2022/11/07 01:52:11;;;;;;;28.70;14.73;;;;;;;;;;4996590;28;20080;-80
2022/11/07 01:54:43;;;;;;;;;;;;;;;;;;4997854;28;20032;-80
2022/11/07 01:57:14;;;;;;;29.52;13.18;;;;;;;;;;4996105;28;19914;-79
2022/11/07 01:59:40;;;;;;;28.33;14.13;;;;;;;;;;4997176;28;20117;-81
2022/11/07 02:02:07;;;;;;;29.77;14.73;;;;;;;;;;4997593;28;20065;-79
2022/11/07 02:04:32;;;;;;;22.53;12.97;;;;;;;;;;4996945;28;20025;-80
2022/11/07 02:07:07;;;;;;;27.60;14.57;;;;;;;;;;4997344;28;20034;-80
2022/11/07 02:09:33;;;;;;;24.93;13.43;;;;;;;;;;4997111;28;20049;-80
2022/11/07 02:11:59;;;;;;;28.77;13.80;;;;;;;;;;4997117;28;20030;-80
2022/11/07 02:14:26;;;;;;;27.93;14.47;;;;;;;;;;4996569;28;20082;-80
2022/11/07 02:16:52;;;;;;;27.73;13.93;;;;;;;;;;4995775;28;20390;-80
2022/11/07 02:19:21;;;;;;;25.33;14.10;;;;;;;;;;4996184;28;20033;-80
2022/11/07 02:22:19;;;;;;;25.03;12.77;;;;;;;;;;4997302;28;20027;-80
2022/11/07 02:24:46;;;;;;;24.30;13.37;;;;;;;;;;4996735;28;20117;-80
2022/11/07 02:27:15;;;;;;;27.23;12.67;;;;;;;;;;5013412;28;20390;-81
2022/11/07 02:29:45;;;;;;;26.30;12.27;;;;;;;;;;5014625;28;20026;-79
2022/11/07 02:32:11;;;;;;;24.03;13.17;;;;;;;;;;5013653;28;20026;-80
2022/11/07 02:34:37;;;;;;;24.43;11.73;;;;;;;;;;5015494;28;20386;-81
2022/11/07 02:37:21;;;;;;;23.23;12.03;;;;;;;;;;5014694;28;20052;-79
2022/11/07 02:39:47;;;;;;;24.47;12.10;;;;;;;;;;5014315;28;20050;-80
2022/11/07 02:42:12;;;;;;;29.07;12.23;;;;;;;;;;5014553;28;20024;-80
2022/11/07 02:44:38;;;;;;;25.47;11.70;;;;;;;;;;5016611;28;20029;-78
2022/11/07 02:47:03;;;;;;;20.07;11.63;;;;;;;;;;5015666;28;20044;-80
2022/11/07 02:49:29;;;;;;;26.07;11.87;;;;;;;;;;5015206;28;20040;-80
2022/11/07 02:51:54;;;;;;;20.53;10.80;;;;;;;;;;5013927;28;20057;-80
2022/11/07 02:54:20;;;;;;;24.00;10.67;;;;;;;;;;5013751;28;20125;-80
2022/11/07 02:56:45;;;;;;;23.37;11.40;;;;;;;;;;5015189;28;20022;-80
2022/11/07 02:59:11;;;;;;;22.13;10.67;;;;;;;;;;5015225;28;20030;-79
2022/11/07 03:01:36;;;;;;;20.90;10.73;;;;;;;;;;5014254;28;20121;-81
2022/11/07 03:04:01;;;;;;;21.73;11.30;;;;;;;;;;5014433;28;20029;-80
2022/11/07 03:06:27;;;;;;;21.00;10.30;;;;;;;;;;5014648;28;20493;-80
2022/11/07 03:08:52;;;;;;;21.90;10.43;;;;;;;;;;5013247;28;20088;-80
2022/11/07 03:11:18;;;;;;;17.80;9.70;;;;;;;;;;5013543;28;20469;-80
2022/11/07 03:13:49;;;;;;;21.97;10.73;;;;;;;;;;5013636;28;20136;-80
2022/11/07 03:16:16;;;;;;;22.37;9.60;;;;;;;;;;5014753;28;20528;-80
2022/11/07 03:18:42;;;;;;;24.47;10.17;;;;;;;;;;5014324;28;20112;-80
2022/11/07 03:21:08;;;;;;;19.80;9.70;;;;;;;;;;5013533;28;20065;-81
2022/11/07 03:23:34;;;;;;;18.47;9.73;;;;;;;;;;5014369;28;20488;-80
2022/11/07 03:26:00;;;;;;;20.33;10.10;;;;;;;;;;5015210;28;20104;-80
2022/11/07 03:28:26;;;;;;;17.00;9.57;;;;;;;;;;5015190;28;20104;-80
2022/11/07 03:30:51;;;;;;;19.60;9.57;;;;;;;;;;5015635;28;20447;-80
2022/11/07 03:33:17;;;;;;;19.87;9.47;;;;;;;;;;5015233;28;20038;-80
2022/11/07 03:35:42;;;;;;;16.50;9.30;;;;;;;;;;5013902;28;20040;-81
2022/11/07 03:38:09;;;;;;;20.07;9.90;;;;;;;;;;5014762;28;20034;-78
2022/11/07 03:40:34;;;;;;;17.60;9.57;;;;;;;;;;5013053;28;20418;-78
2022/11/07 03:43:00;;;;;;;21.50;10.83;;;;;;;;;;5013595;28;20034;-81
2022/11/07 03:45:25;;;;;;;19.60;9.60;;;;;;;;;;5013415;28;20560;-79
2022/11/07 03:47:51;;;;;;;20.77;9.90;;;;;;;;;;5045314;28;20048;-79
2022/11/07 03:50:19;;;;;;;19.83;9.67;;;;;;;;;;5045741;28;20030;-79
2022/11/07 03:52:44;;;;;;;18.17;9.43;;;;;;;;;;5015206;28;20018;-81
2022/11/07 03:55:11;;;;;;;17.87;10.73;;;;;;;;;;5014814;28;20025;-80
2022/11/07 03:57:37;;;;;;;18.20;10.97;;;;;;;;;;5014576;28;20022;-79
2022/11/07 04:00:05;;;;;;;20.73;10.07;;;;;;;;;;5012037;28;20026;-80
2022/11/07 04:02:30;;;;;;;19.13;10.20;;;;;;;;;;5012860;28;20034;-81
2022/11/07 04:04:56;;;;;;;19.83;11.07;;;;;;;;;;5013757;28;20033;-79
2022/11/07 04:07:21;;;;;;;21.47;10.70;;;;;;;;;;5014280;28;20037;-79
2022/11/07 04:09:46;;;;;;;27.67;11.90;;;;;;;;;;5014875;28;20030;-80
2022/11/07 04:17:40;;;;;;;25.43;10.67;;;;;;;;;;5013700;28;20060;-80
2022/11/07 04:20:06;;;;;;;21.00;11.63;;;;;;;;;;5012725;28;20033;-79
2022/11/07 04:22:31;;;;;;;25.63;10.40;;;;;;;;;;5013368;28;20531;-79
2022/11/07 04:24:57;;;;;;;21.30;11.07;;;;;;;;;;5013770;28;20105;-81
2022/11/07 04:30:26;;;;;;;18.90;11.17;;;;;;;;;;5013889;28;20513;-80
2022/11/07 04:32:54;;;;;;;20.63;10.53;;;;;;;;;;5012742;28;20041;-79
2022/11/07 04:35:23;;;;;;;20.03;10.50;;;;;;;;;;5013696;28;20071;-79
2022/11/07 04:37:48;;;;;;;17.40;9.50;;;;;;;;;;5012553;28;20037;-80
2022/11/07 04:40:15;;;;;;;22.10;10.40;;;;;;;;;;5013896;28;20050;-80
2022/11/07 04:42:41;;;;;;;27.37;11.63;;;;;;;;;;5014751;28;20038;-80
2022/11/07 04:45:08;;;;;;;26.00;11.00;;;;;;;;;;5012468;28;20025;-80
2022/11/07 04:47:33;;;;;;;28.60;15.00;;;;;;;;;;5014437;28;20029;-78
2022/11/07 04:49:59;;;;;;;20.37;11.40;;;;;;;;;;5018064;28;20075;-79
2022/11/07 04:52:24;;;;;;;20.27;10.17;;;;;;;;;;5017343;28;20060;-79
2022/11/07 04:54:50;;;;;;;24.73;12.13;;;;;;;;;;5017036;28;20026;-80
2022/11/07 04:57:15;;;;;;;18.60;10.30;;;;;;;;;;5016010;28;20070;-78
2022/11/07 04:59:41;;;;;;;19.80;10.23;;;;;;;;;;5017820;28;20466;-80
2022/11/07 05:02:11;;;;;;;21.33;10.10;;;;;;;;;;5017698;28;20482;-80
2022/11/07 05:04:36;;;;;;;20.13;10.17;;;;;;;;;;5017567;28;20042;-80
2022/11/07 05:07:02;;;;;;;17.50;10.23;;;;;;;;;;5016940;28;20025;-81
2022/11/07 05:09:28;;;;;;;19.80;10.40;;;;;;;;;;5017875;28;20033;-80
2022/11/07 05:11:54;;;;;;;24.27;10.97;;;;;;;;;;5015712;28;20022;-79
2022/11/07 05:14:20;;;;;;;21.13;10.03;;;;;;;;;;5015559;28;20053;-80
2022/11/07 05:16:45;;;;;;;20.67;10.17;;;;;;;;;;5015509;28;20057;-80
2022/11/07 05:19:20;;;;;;;23.63;10.80;;;;;;;;;;5017753;28;20017;-80
2022/11/07 05:21:46;;;;;;;21.00;10.83;;;;;;;;;;5016397;28;20018;-80
2022/11/07 05:24:12;;;;;;;20.37;11.07;;;;;;;;;;5017324;28;20030;-79
2022/11/07 05:26:38;;;;;;;23.83;11.03;;;;;;;;;;5016653;28;20046;-80
2022/11/07 05:29:07;;;;;;;22.03;10.33;;;;;;;;;;5014722;28;20096;-78
2022/11/07 05:31:33;;;;;;;19.63;10.63;;;;;;;;;;5016877;28;20093;-81
2022/11/07 05:33:58;;;;;;;23.60;11.20;;;;;;;;;;5017636;28;20060;-81
2022/11/07 05:36:25;;;;;;;22.10;11.03;;;;;;;;;;5015681;28;20033;-81
2022/11/07 05:38:52;;;;;;;20.87;11.77;;;;;;;;;;5015618;28;20047;-80
2022/11/07 05:41:19;;;;;;;23.97;10.50;;;;;;;;;;5016728;28;20473;-81
2022/11/07 05:43:45;;;;;;;18.50;9.97;;;;;;;;;;5016155;28;20051;-80
2022/11/07 05:46:11;;;;;;;21.50;11.57;;;;;;;;;;5017762;28;20076;-79
2022/11/07 05:48:37;;;;;;;20.23;11.37;;;;;;;;;;5018121;28;20779;-80
2022/11/07 05:51:04;;;;;;;19.57;10.37;;;;;;;;;;5016312;28;20056;-79
2022/11/07 05:53:30;;;;;;;17.60;9.63;;;;;;;;;;5017541;28;20061;-80
2022/11/07 05:55:56;;;;;;;20.17;10.20;;;;;;;;;;5015794;28;20026;-79
2022/11/07 05:58:22;;;;;;;22.97;12.03;;;;;;;;;;5014916;28;20032;-80
2022/11/07 06:00:47;;;;;;;22.70;11.90;;;;;;;;;;5016044;28;20036;-80
2022/11/07 06:03:13;;;;;;;19.93;11.03;;;;;;;;;;5016186;28;20057;-80
2022/11/07 06:05:42;;;;;;;22.97;11.57;;;;;;;;;;5014423;28;20017;-80
2022/11/07 06:08:11;;;;;;;25.93;11.43;;;;;;;;;;5016070;28;20026;-80
2022/11/07 06:10:37;;;;;;;19.13;11.57;;;;;;;;;;5016140;28;20133;-80
2022/11/07 06:13:06;;;;;;;29.53;14.60;;;;;;;;;;5014873;28;20608;-80
2022/11/07 06:15:34;;;;;;;18.27;10.60;;;;;;;;;;5030283;28;20052;-80
2022/11/07 06:18:01;;;;;;;21.17;10.83;;;;;;;;;;5014832;28;20037;-80
2022/11/07 06:20:27;;;;;;;41.73;17.90;;;;;;;;;;5014814;28;20032;-79
2022/11/07 06:22:59;;;;;;;26.13;13.60;;;;;;;;;;5007881;28;20410;-81
2022/11/07 06:25:26;;;;;;;23.57;12.03;;;;;;;;;;5012557;28;20111;-80
2022/11/07 06:27:52;;;;;;;20.93;10.83;;;;;;;;;;5015385;28;20069;-81
2022/11/07 06:30:18;;;;;;;28.77;13.67;;;;;;;;;;5029609;28;20026;-79
2022/11/07 06:32:44;;;;;;;26.47;12.77;;;;;;;;;;5010437;28;20108;-80
2022/11/07 06:35:11;;;;;;;25.57;11.77;;;;;;;;;;5015889;28;20481;-80
2022/11/07 06:37:38;;;;;;;19.70;10.97;;;;;;;;;;5015342;28;20033;-80
2022/11/07 06:40:04;;;;;;;19.63;10.77;;;;;;;;;;5016304;28;20049;-80
2022/11/07 06:42:29;;;;;;;25.70;12.17;;;;;;;;;;5018757;28;20030;-79
2022/11/07 06:44:55;;;;;;;24.13;12.13;;;;;;;;;;5027967;28;20090;-79
2022/11/07 06:47:20;;;;;;;18.57;11.13;;;;;;;;;;5035087;28;20025;-78
2022/11/07 06:49:46;;;;;;;24.27;11.23;;;;;;;;;;5034837;28;20037;-80
2022/11/07 06:52:11;;;;;;;24.27;12.03;;;;;;;;;;5034530;28;20081;-81
2022/11/07 06:54:37;;;;;;;25.43;13.43;;;;;;;;;;5034891;28;20041;-80
2022/11/07 06:57:03;;;;;;;28.30;13.67;;;;;;;;;;5033516;28;20495;-80
2022/11/07 06:59:28;;;;;;;28.30;12.77;;;;;;;;;;5034736;28;20064;-79
2022/11/07 07:01:54;;;;;;;27.97;15.53;;;;;;;;;;5035020;28;20116;-80
2022/11/07 07:04:19;;;;;;;24.27;11.93;;;;;;;;;;5038610;28;20450;-79
2022/11/07 07:06:45;;;;;;;30.00;14.10;;;;;;;;;;5035780;28;20044;-80
2022/11/07 07:09:11;;;;;;;27.60;13.10;;;;;;;;;;5029795;28;20043;-80
2022/11/07 07:11:37;;;;;;;19.47;10.73;;;;;;;;;;5015380;28;20021;-79
2022/11/07 07:14:03;;;;;;;29.43;11.90;;;;;;;;;;5007939;28;20037;-78
2022/11/07 07:16:29;;;;;;;26.07;10.33;;;;;;;;;;5010866;28;20119;-82
2022/11/07 07:18:55;;;;;;;21.40;10.73;;;;;;;;;;5007633;28;20124;-80
2022/11/07 07:21:20;;;;;;;20.77;10.03;;;;;;;;;;5005231;28;20061;-76
2022/11/07 07:23:46;;;;;;;21.87;9.90;;;;;;;;;;5003280;28;20407;-79
2022/11/07 07:26:14;;;;;;;21.17;9.53;;;;;;;;;;5005504;28;20030;-79
2022/11/07 07:28:40;;;;;;;20.97;10.00;;;;;;;;;;5006407;28;20037;-79
2022/11/07 07:31:21;;;;;;;20.43;9.50;;;;;;;;;;5006423;28;20026;-79
2022/11/07 07:33:47;;;;;;;20.65;9.68;;;;;;;;;;5009558;28;20038;-79
2022/11/07 07:36:13;;;;;;;21.97;9.77;;;;;;;;;;5012659;28;20056;-79
2022/11/07 07:38:40;;;;;;;22.97;12.20;;;;;;;;;;5007419;28;20029;-80
2022/11/07 07:41:06;;;;;;;23.63;10.17;;;;;;;;;;5010554;28;20397;-81
2022/11/07 07:43:32;;;;;;;18.27;8.67;;;;;;;;;;5012791;28;20474;-80
2022/11/07 07:46:00;;;;;;;16.23;8.97;;;;;;;;;;5012034;28;20034;-79
2022/11/07 07:48:26;;;;;;;19.77;9.70;;;;;;;;;;5008122;28;20121;-80
2022/11/07 07:50:51;;;;;;;16.00;7.10;;;;;;;;;;5004229;28;20340;-78
2022/11/07 07:53:17;;;;;;;12.47;7.37;;;;;;;;;;5005399;28;20045;-78
2022/11/07 07:55:43;;;;;;;16.48;9.18;;;;;;;;;;5012287;28;20030;-80
2022/11/07 07:58:18;;;;;;;14.13;7.68;;;;;;;;;;5014440;28;20032;-80
2022/11/07 08:00:43;;;;;;;16.30;8.18;;;;;;;;;;5016915;28;20026;-79
2022/11/07 08:03:16;;;;;;;15.65;8.63;;;;;;;;;;5017888;28;20025;-79
2022/11/07 08:05:42;;;;;;;12.10;7.82;;;;;;;;;;5012182;28;20469;-80
2022/11/07 08:08:11;;;;;;;13.65;8.30;;;;;;;;;;5012194;28;20097;-79
2022/11/07 08:10:36;;;;;;;11.13;7.13;;;;;;;;;;5013361;28;20132;-80
2022/11/07 08:13:02;;;;;;;14.10;7.78;;;;;;;;;;5013987;28;20109;-78
2022/11/07 08:15:29;;;;;;;10.23;6.68;;;;;;;;;;5014894;28;20169;-81
2022/11/07 08:17:55;;;;;;;13.68;7.43;;;;;;;;;;5015121;28;20490;-78
2022/11/07 08:20:28;;;;;;;17.35;8.30;;;;;;;;;;5007884;28;20080;-79
2022/11/07 08:23:07;;;;;;;14.10;6.43;;;;;;;;;;5013157;28;20037;-81
2022/11/07 08:25:34;;;;;;;15.77;7.60;;;;;;;;;;5011354;28;20046;-80
2022/11/07 08:27:59;;;;;;;10.68;5.85;;;;;;;;;;5012802;28;20521;-80
2022/11/07 08:30:27;;;;;;;8.13;4.90;;;;;;;;;;5013783;28;20132;-80
2022/11/07 08:33:00;;;;;;;7.70;4.53;;;;;;;;;;5007130;28;20133;-81
2022/11/07 08:35:25;;;;;;;11.00;5.45;;;;;;;;;;5010757;28;20413;-80
2022/11/07 08:37:54;;;;;;;9.25;4.90;;;;;;;;;;5006655;28;20526;-79
2022/11/07 08:40:25;;;;;;;9.70;5.40;;;;;;;;;;5008941;28;20160;-77
2022/11/07 08:42:50;;;;;;;7.30;4.35;;;;;;;;;;5005683;28;20065;-79
2022/11/07 08:45:17;;;;;;;8.88;3.83;;;;;;;;;;5010829;28;20097;-78
2022/11/07 08:47:46;;;;;;;8.15;4.07;;;;;;;;;;5008820;28;20069;-79
2022/11/07 08:50:11;;;;;;;8.02;3.63;;;;;;;;;;5007222;28;20033;-80
2022/11/07 08:52:37;;;;;;;8.45;3.47;;;;;;;;;;5006107;28;20113;-80
2022/11/07 08:55:03;;;;;;;4.43;2.42;;;;;;;;;;5007904;28;20042;-79
2022/11/07 08:57:29;;;;;;;9.02;4.05;;;;;;;;;;5003121;28;20124;-79
2022/11/07 08:59:55;;;;;;;4.32;2.80;;;;;;;;;;5007938;28;20045;-78
2022/11/07 09:02:21;;;;;;;11.45;3.22;;;;;;;;;;5005355;28;20034;-79
2022/11/07 09:04:46;;;;;;;4.65;2.50;;;;;;;;;;5009528;28;20026;-80
2022/11/07 09:07:12;;;;;;;4.22;2.97;;;;;;;;;;5002852;28;20109;-81
2022/11/07 09:09:37;;;;;;;6.35;2.92;;;;;;;;;;5004035;28;20033;-80
2022/11/07 09:12:03;;;;;;;5.22;2.67;;;;;;;;;;5007422;28;20029;-79
2022/11/07 09:14:28;;;;;;;5.80;3.88;;;;;;;;;;5003536;28;20038;-79
2022/11/07 09:16:54;;;;;;;5.10;3.15;;;;;;;;;;5005869;28;20033;-79
2022/11/07 09:19:19;;;;;;;8.57;3.72;;;;;;;;;;5017470;28;20025;-78
2022/11/07 09:21:45;;;;;;;3.92;2.38;;;;;;;;;;5015559;28;20026;-79
2022/11/07 09:24:11;;;;;;;5.00;2.60;;;;;;;;;;5006342;28;20110;-80
2022/11/07 09:26:37;;;;;;;4.30;2.45;;;;;;;;;;5019874;28;20145;-79
2022/11/07 09:29:03;;;;;;;3.10;2.33;;;;;;;;;;5000875;28;20161;-79
2022/11/07 09:31:29;;;;;;;2.38;1.90;;;;;;;;;;5002342;28;20145;-80
2022/11/07 09:33:54;;;;;;;4.97;2.00;;;;;;;;;;5004688;28;20065;-80
2022/11/07 09:36:22;;;;;;;7.00;2.55;;;;;;;;;;5009424;28;20098;-78
2022/11/07 09:38:48;;;;;;;5.57;2.50;;;;;;;;;;4994260;28;20069;-79
2022/11/07 09:41:29;;;;;;;4.78;2.20;;;;;;;;;;5011154;28;20029;-78
2022/11/07 09:44:32;;;;;;;4.07;2.15;;;;;;;;;;5008066;28;21087;-79
2022/11/07 09:47:16;;;;;;;2.92;2.20;;;;;;;;;;5009857;28;20111;-78
2022/11/07 09:49:52;;;;;;;2.88;2.05;;;;;;;;;;5011564;28;20033;-79
2022/11/07 09:52:43;;;;;;;5.13;2.10;;;;;;;;;;5009366;28;20847;-79
2022/11/07 09:55:17;;;;;;;4.85;2.03;;;;;;;;;;5006495;28;20029;-79
2022/11/07 09:57:45;;;;;;;5.00;2.03;;;;;;;;;;5006703;28;20661;-78
2022/11/07 10:00:21;;;;;;;6.45;2.60;;;;;;;;;;4991747;28;20026;-79
2022/11/07 10:02:54;;;;;;;2.95;2.03;;;;;;;;;;5008905;28;20064;-79
2022/11/07 10:05:45;;;;;;;5.05;2.08;;;;;;;;;;5006219;28;20092;-81
2022/11/07 10:08:18;;;;;;;7.95;2.17;;;;;;;;;;5004946;28;20041;-80
2022/11/07 10:11:02;;;;;;;5.13;2.10;;;;;;;;;;5008146;28;20034;-79
2022/11/07 10:13:43;;;;;;;10.75;2.85;;;;;;;;;;5003206;28;20061;-80
2022/11/07 10:16:15;;;;;;;6.38;2.85;;;;;;;;;;5011825;28;20034;-80
2022/11/07 10:18:46;;;;;;;5.85;2.30;;;;;;;;;;5008129;28;20029;-80
2022/11/07 10:21:33;;;;;;;5.00;2.13;;;;;;;;;;5011720;28;20142;-81
2022/11/07 10:24:22;;;;;;;6.93;2.00;;;;;;;;;;5005696;28;20474;-81
2022/11/07 10:26:48;;;;;;;3.83;2.55;;;;;;;;;;5005760;28;20064;-79
2022/11/07 10:29:19;;;;;;;3.60;1.85;;;;;;;;;;5005920;28;20236;-79
2022/11/07 10:31:57;;;;;;;17.45;2.17;;;;;;;;;;5009461;28;20022;-79
2022/11/07 10:34:36;;;;;;;3.75;1.95;;;;;;;;;;5009363;28;20042;-79
2022/11/07 10:37:03;;;;;;;5.80;2.78;;;;;;;;;;5005259;28;20166;-79
2022/11/07 10:39:30;;;;;;;6.13;2.95;;;;;;;;;;5006354;28;20054;-79
2022/11/07 10:42:04;;;;;;;3.80;2.08;;;;;;;;;;5007203;28;20033;-78
2022/11/07 10:44:30;;;;;;;2.80;1.58;;;;;;;;;;5007753;28;20053;-81
2022/11/07 10:46:56;;;;;;;6.85;1.80;;;;;;;;;;5005892;28;20033;-82
2022/11/07 10:49:27;;;;;;;4.28;2.05;;;;;;;;;;5009594;28;20030;-81
2022/11/07 10:52:04;;;;;;;3.83;1.60;;;;;;;;;;5006512;28;20542;-80
2022/11/07 10:54:30;;;;;;;4.68;2.00;;;;;;;;;;5005871;28;20061;-81
2022/11/07 10:57:11;;;;;;;5.15;1.50;;;;;;;;;;5008886;28;20037;-80
2022/11/07 10:59:39;;;;;;;7.93;2.92;;;;;;;;;;5007120;28;20052;-79
2022/11/07 11:02:44;;;;;;;5.32;1.58;;;;;;;;;;5007770;28;20032;-77
2022/11/07 11:05:25;;;;;;;2.97;1.65;;;;;;;;;;5009157;28;20684;-79
2022/11/07 11:07:53;;;;;;;4.07;2.30;;;;;;;;;;5003744;28;20025;-79
2022/11/07 11:10:27;;;;;;;2.17;1.35;;;;;;;;;;5006396;28;20585;-80
2022/11/07 11:12:53;;;;;;;6.28;1.40;;;;;;;;;;5010335;28;20113;-81
2022/11/07 11:15:24;;;;;;;5.55;1.80;;;;;;;;;;5004638;28;20485;-80
2022/11/07 11:18:01;;;;;;;2.50;1.55;;;;;;;;;;5008422;28;20033;-80
2022/11/07 11:20:40;;;;;;;8.75;1.98;;;;;;;;;;5010238;28;20037;-81
2022/11/07 11:23:17;;;;;;;1.88;1.67;;;;;;;;;;5007159;28;20069;-80
2022/11/07 11:25:49;;;;;;;3.22;1.35;;;;;;;;;;5006635;28;20053;-80
2022/11/07 11:28:22;;;;;;;;;;;;;;;;;;5002812;28;20037;-78
2022/11/07 11:30:55;;;;;;;7.95;1.42;;;;;;;;;;5003483;28;19944;-79
2022/11/07 11:33:28;;;;;;;5.70;1.95;;;;;;;;;;5007586;28;20038;-81
2022/11/07 11:36:12;;;;;;;3.13;1.90;;;;;;;;;;5009443;28;20040;-79
2022/11/07 11:38:38;;;;;;;5.32;1.70;;;;;;;;;;5004352;28;20116;-79
2022/11/07 11:41:22;;;;;;;6.13;2.10;;;;;;;;;;5003633;28;20121;-79
2022/11/07 11:43:59;;;;;;;3.35;1.25;;;;;;;;;;5008426;28;20025;-80
2022/11/07 11:46:26;;;;;;;4.50;1.42;;;;;;;;;;5008626;28;20054;-79
2022/11/07 11:49:23;;;;;;;6.28;1.58;;;;;;;;;;5000005;28;20034;-79
2022/11/07 11:51:54;;;;;;;6.57;1.20;;;;;;;;;;5001096;28;20529;-79
2022/11/07 11:54:20;;;;;;;2.88;1.23;;;;;;;;;;5002304;28;20041;-79
2022/11/07 11:56:57;;;;;;;7.90;1.80;;;;;;;;;;4989087;28;20037;-79
2022/11/07 11:59:33;;;;;;;7.70;1.50;;;;;;;;;;5004016;28;20037;-80
2022/11/07 12:02:27;;;;;;;9.63;2.60;;;;;;;;;;5018010;28;20466;-78
2022/11/07 12:05:01;;;;;;;8.73;1.60;;;;;;;;;;5017709;28;20416;-80
2022/11/07 12:07:48;;;;;;;10.57;2.30;;;;;;;;;;5002332;28;20148;-81
2022/11/07 12:10:38;;;;;;;7.72;1.80;;;;;;;;;;5002550;28;20037;-81
2022/11/07 12:13:29;;;;;;;4.43;1.75;;;;;;;;;;5006450;28;20037;-80
2022/11/07 12:16:15;;;;;;;3.05;1.30;;;;;;;;;;5002027;28;20033;-79
2022/11/07 12:18:50;;;;;;;3.00;1.42;;;;;;;;;;5007303;28;20397;-80
2022/11/07 12:21:24;;;;;;;6.00;1.48;;;;;;;;;;5007026;28;20025;-78
2022/11/07 12:24:16;;;;;;;2.50;1.45;;;;;;;;;;5023195;28;20402;-81
2022/11/07 12:27:15;;;;;;;7.55;1.80;;;;;;;;;;5003674;28;20042;-81
2022/11/07 12:29:44;;;;;;;3.35;1.50;;;;;;;;;;5021211;28;20022;-81
2022/11/07 12:32:34;;;;;;;3.95;1.75;;;;;;;;;;5019599;28;20026;-80
2022/11/07 12:35:34;;;;;;;2.90;1.05;;;;;;;;;;5005508;28;20088;-80
2022/11/07 12:38:32;;;;;;;2.42;1.10;;;;;;;;;;5002153;28;20083;-80
2022/11/07 12:41:33;;;;;;;4.20;1.50;;;;;;;;;;5001956;28;20042;-80
2022/11/07 12:44:18;;;;;;;5.90;1.52;;;;;;;;;;5007159;28;20099;-81
2022/11/07 12:46:58;;;;;;;3.47;1.45;;;;;;;;;;5008269;28;20454;-80
2022/11/07 12:50:01;;;;;;;3.38;1.27;;;;;;;;;;5000853;28;20237;-80
2022/11/07 12:52:49;;;;;;;4.53;1.50;;;;;;;;;;5002045;28;20029;-81
2022/11/07 12:55:21;;;;;;;2.65;1.10;;;;;;;;;;5002236;28;20025;-80
2022/11/07 12:57:48;;;;;;;;;;;;;;;;;;5001177;28;20117;-81
2022/11/07 13:00:21;;;;;;;3.70;1.30;;;;;;;;;;5004375;28;20240;-80
2022/11/07 13:03:01;;;;;;;3.33;1.27;;;;;;;;;;5003623;28;20114;-80
2022/11/07 13:06:15;;;;;;;2.90;1.30;;;;;;;;;;5009629;28;20110;-81
2022/11/07 13:09:07;;;;;;;2.90;1.13;;;;;;;;;;4974741;28;20168;-79
2022/11/07 13:11:57;;;;;;;10.20;1.77;;;;;;;;;;5007017;28;20083;-81
2022/11/07 13:14:31;;;;;;;5.05;1.90;;;;;;;;;;5019247;28;20274;-79
2022/11/07 13:17:14;;;;;;;3.80;1.15;;;;;;;;;;5007999;28;20038;-80
2022/11/07 13:19:43;;;;;;;6.28;1.30;;;;;;;;;;5008956;28;20031;-79
2022/11/07 13:22:14;;;;;;;10.40;1.67;;;;;;;;;;5008966;28;20030;-80
2022/11/07 13:25:12;;;;;;;4.45;1.60;;;;;;;;;;5009602;28;20026;-79
2022/11/07 13:27:41;;;;;;;6.40;2.08;;;;;;;;;;5002652;28;20101;-79
2022/11/07 13:30:16;;;;;;;2.88;1.00;;;;;;;;;;5013185;28;20045;-80
2022/11/07 13:32:43;;;;;;;4.68;1.88;;;;;;;;;;5011891;28;20017;-79
2022/11/07 13:35:45;;;;;;;7.93;1.30;;;;;;;;;;5006038;28;20116;-78
2022/11/07 13:38:21;;;;;;;4.00;2.40;;;;;;;;;;5005143;28;20034;-79
2022/11/07 13:41:02;;;;;;;2.95;1.23;;;;;;;;;;5011154;28;20052;-81
2022/11/07 13:43:41;;;;;;;2.75;1.50;;;;;;;;;;5009719;28;20151;-79
2022/11/07 13:46:15;;;;;;;6.50;1.58;;;;;;;;;;5009726;28;20133;-81
2022/11/07 13:48:43;;;;;;;3.20;1.30;;;;;;;;;;5007233;28;20349;-81
2022/11/07 13:51:09;;;;;;;8.30;2.17;;;;;;;;;;5009718;28;20041;-79
2022/11/07 13:54:27;;;;;;;4.82;2.15;;;;;;;;;;5006556;28;20038;-79
2022/11/07 13:57:00;;;;;;;4.22;1.33;;;;;;;;;;5005630;28;20058;-84
2022/11/07 13:59:43;;;;;;;7.18;1.88;;;;;;;;;;5000867;28;20034;-80
2022/11/07 14:02:29;;;;;;;2.42;1.38;;;;;;;;;;5009085;28;20063;-80
2022/11/07 14:05:04;;;;;;;4.97;1.25;;;;;;;;;;5009238;28;20030;-79
2022/11/07 14:07:35;;;;;;;1.20;1.10;;;;;;;;;;5008210;28;20029;-77
2022/11/07 14:10:04;;;;;;;3.30;1.73;;;;;;;;;;5009882;28;21009;-79
2022/11/07 14:12:36;;;;;;;5.05;1.80;;;;;;;;;;5008506;28;20045;-81
2022/11/07 14:15:04;;;;;;;4.50;2.05;;;;;;;;;;5009054;28;20121;-79
2022/11/07 14:17:35;;;;;;;2.75;1.55;;;;;;;;;;5011326;28;20040;-79
2022/11/07 14:20:18;;;;;;;3.17;1.63;;;;;;;;;;5010418;28;20036;-81
2022/11/07 14:23:02;;;;;;;7.53;2.10;;;;;;;;;;5010623;28;20536;-81
2022/11/07 14:25:30;;;;;;;4.18;1.40;;;;;;;;;;5003056;28;20041;-80
2022/11/07 14:27:57;;;;;;;4.60;1.60;;;;;;;;;;5010966;28;20039;-80
2022/11/07 14:30:24;;;;;;;3.83;1.20;;;;;;;;;;5015165;28;20022;-80
2022/11/07 14:32:53;;;;;;;5.88;3.13;;;;;;;;;;5015235;28;20089;-82
2022/11/07 14:35:23;;;;;;;6.25;1.80;;;;;;;;;;5018919;28;20405;-80
2022/11/07 14:37:50;;;;;;;2.95;1.42;;;;;;;;;;5016003;28;20088;-83
2022/11/07 14:40:16;;;;;;;6.18;1.85;;;;;;;;;;4996195;28;20046;-82
2022/11/07 14:42:42;;;;;;;9.25;2.55;;;;;;;;;;5022085;28;20053;-81
2022/11/07 14:45:13;;;;;;;5.65;2.25;;;;;;;;;;5022160;28;20045;-80
2022/11/07 14:47:39;;;;;;;4.07;1.87;;;;;;;;;;5012586;28;20017;-80
2022/11/07 14:50:06;;;;;;;7.82;2.10;;;;;;;;;;4996266;28;20038;-80
2022/11/07 14:52:44;;;;;;;6.47;1.98;;;;;;;;;;4996671;28;20044;-78
2022/11/07 14:55:42;;;;;;;9.30;2.50;;;;;;;;;;5018675;28;20034;-81
2022/11/07 14:58:10;;;;;;;6.65;2.42;;;;;;;;;;5035288;28;20029;-81
2022/11/07 15:00:36;;;;;;;2.83;1.98;;;;;;;;;;5012981;28;20132;-81